createdAt,value
2016-12-03T00:00:08.346Z,79.54
2016-12-03T00:01:07.807Z,81.19
2016-12-03T00:02:08.397Z,80.15
2016-12-03T00:03:07.981Z,81.14
2016-12-03T00:04:07.458Z,81.92
2016-12-03T00:05:08.045Z,81.82
2016-12-03T00:06:07.541Z,81.77
2016-12-03T00:07:08.042Z,81.05
2016-12-03T00:08:08.463Z,81.27
2016-12-03T00:09:08.008Z,80.13
2016-12-03T00:10:07.460Z,79.69
2016-12-03T00:11:08.063Z,79.48
2016-12-03T00:12:07.662Z,79.58
2016-12-03T00:13:08.308Z,80.31
2016-12-03T00:14:07.892Z,79.85
2016-12-03T00:15:08.469Z,79.55
2016-12-03T00:16:08.045Z,79.30
2016-12-03T00:17:07.710Z,79.98
2016-12-03T00:18:08.139Z,80.19
2016-12-03T00:19:07.711Z,79.52
2016-12-03T00:20:08.331Z,79.19
2016-12-03T00:21:08.148Z,80.56
2016-12-03T00:22:07.744Z,80.35
2016-12-03T00:23:08.391Z,79.84
2016-12-03T00:24:07.928Z,80.39
2016-12-03T00:25:07.468Z,81.14
2016-12-03T00:26:08.082Z,79.62
2016-12-03T00:27:07.648Z,79.13
2016-12-03T00:28:08.290Z,80.16
2016-12-03T00:29:07.860Z,80.27
2016-12-03T00:30:08.530Z,79.42
2016-12-03T00:31:08.167Z,80.08
2016-12-03T00:32:07.647Z,79.94
2016-12-03T00:33:08.355Z,80.74
2016-12-03T00:34:07.898Z,81.62
2016-12-03T00:35:09.018Z,81.19
2016-12-03T00:36:07.534Z,80.64
2016-12-03T00:37:08.131Z,80.03
2016-12-03T00:38:07.908Z,79.84
2016-12-03T00:39:08.414Z,80.29
2016-12-03T00:40:07.905Z,79.75
2016-12-03T00:41:09.794Z,80.43
2016-12-03T00:42:08.370Z,81.15
2016-12-03T00:43:07.929Z,81.85
2016-12-03T00:44:08.462Z,82.20
2016-12-03T00:45:08.080Z,82.71
2016-12-03T00:46:07.747Z,82.87
2016-12-03T00:47:08.327Z,82.55
2016-12-03T00:48:07.869Z,82.09
2016-12-03T00:49:08.495Z,81.82
2016-12-03T00:50:08.111Z,80.78
2016-12-03T00:51:07.676Z,80.94
2016-12-03T00:52:08.314Z,80.89
2016-12-03T00:53:07.935Z,81.18
2016-12-03T00:54:07.466Z,82.07
2016-12-03T00:55:13.494Z,82.13
2016-12-03T00:56:08.115Z,82.13
2016-12-03T00:57:07.768Z,80.46
2016-12-03T00:58:08.530Z,81.02
2016-12-03T00:59:08.094Z,81.14
2016-12-03T01:00:07.537Z,81.64
2016-12-03T01:01:07.697Z,82.02
2016-12-03T01:02:08.293Z,81.45
2016-12-03T01:03:07.838Z,81.88
2016-12-03T01:04:08.017Z,80.95
2016-12-03T01:05:08.994Z,80.97
2016-12-03T01:06:08.450Z,81.18
2016-12-03T01:07:08.088Z,82.02
2016-12-03T01:08:07.776Z,81.00
2016-12-03T01:09:08.500Z,81.13
2016-12-03T01:10:08.356Z,81.01
2016-12-03T01:11:07.836Z,81.36
2016-12-03T01:12:08.067Z,81.14
2016-12-03T01:13:08.164Z,80.91
2016-12-03T01:14:07.660Z,80.47
2016-12-03T01:15:08.375Z,80.60
2016-12-03T01:16:08.205Z,80.65
2016-12-03T01:17:08.038Z,81.32
2016-12-03T01:18:07.566Z,80.89
2016-12-03T01:19:08.024Z,80.55
2016-12-03T01:20:07.667Z,80.13
2016-12-03T01:21:08.206Z,80.26
2016-12-03T01:22:07.975Z,79.83
2016-12-03T01:23:07.476Z,80.50
2016-12-03T01:24:07.886Z,80.15
2016-12-03T01:25:07.801Z,80.53
2016-12-03T01:26:08.219Z,79.94
2016-12-03T01:27:08.277Z,80.26
2016-12-03T01:28:07.841Z,80.65
2016-12-03T01:29:07.962Z,80.27
2016-12-03T01:30:07.894Z,79.85
2016-12-03T01:31:08.521Z,80.10
2016-12-03T01:32:08.248Z,79.88
2016-12-03T01:33:07.778Z,79.00
2016-12-03T01:34:08.353Z,78.07
2016-12-03T01:35:08.220Z,77.81
2016-12-03T01:36:07.774Z,78.75
2016-12-03T01:37:07.984Z,79.15
2016-12-03T01:38:07.627Z,79.36
2016-12-03T01:39:08.344Z,79.82
2016-12-03T01:40:07.896Z,79.69
2016-12-03T01:41:08.542Z,78.58
2016-12-03T01:42:08.211Z,78.68
2016-12-03T01:43:07.758Z,78.99
2016-12-03T01:44:08.500Z,78.68
2016-12-03T01:45:08.141Z,79.83
2016-12-03T01:46:07.645Z,79.33
2016-12-03T01:47:07.862Z,78.35
2016-12-03T01:48:07.886Z,78.58
2016-12-03T01:49:08.676Z,77.72
2016-12-03T01:50:08.158Z,77.48
2016-12-03T01:51:08.412Z,77.72
2016-12-03T01:52:08.026Z,77.80
2016-12-03T01:53:07.809Z,77.57
2016-12-03T01:54:08.329Z,77.58
2016-12-03T01:55:08.177Z,77.37
2016-12-03T01:56:07.701Z,77.20
2016-12-03T01:57:08.255Z,77.22
2016-12-03T01:58:08.395Z,77.63
2016-12-03T01:59:07.501Z,77.35
2016-12-03T02:00:08.175Z,78.19
2016-12-03T02:01:07.624Z,77.34
2016-12-03T02:02:07.899Z,76.93
2016-12-03T02:03:08.518Z,77.23
2016-12-03T02:04:08.183Z,77.37
2016-12-03T02:05:07.780Z,76.99
2016-12-03T02:06:08.461Z,76.27
2016-12-03T02:07:08.001Z,76.00
2016-12-03T02:08:08.525Z,76.26
2016-12-03T02:09:07.959Z,76.70
2016-12-03T02:10:08.032Z,77.48
2016-12-03T02:11:07.873Z,77.43
2016-12-03T02:12:08.358Z,78.36
2016-12-03T02:13:07.515Z,76.80
2016-12-03T02:14:07.896Z,77.29
2016-12-03T02:15:08.541Z,76.68
2016-12-03T02:16:08.431Z,77.05
2016-12-03T02:17:08.197Z,77.61
2016-12-03T02:18:07.756Z,77.69
2016-12-03T02:19:07.617Z,77.62
2016-12-03T02:20:08.146Z,77.62
2016-12-03T02:21:08.390Z,77.36
2016-12-03T02:22:07.926Z,77.37
2016-12-03T02:23:07.473Z,76.86
2016-12-03T02:24:08.041Z,77.42
2016-12-03T02:25:07.636Z,77.34
2016-12-03T02:26:08.436Z,77.72
2016-12-03T02:27:07.994Z,78.18
2016-12-03T02:28:07.680Z,77.72
2016-12-03T02:29:08.244Z,77.75
2016-12-03T02:30:07.827Z,77.33
2016-12-03T02:31:08.459Z,77.72
2016-12-03T02:32:08.082Z,78.07
2016-12-03T02:33:07.656Z,77.74
2016-12-03T02:34:08.178Z,77.31
2016-12-03T02:35:07.891Z,77.35
2016-12-03T02:36:08.741Z,77.80
2016-12-03T02:37:08.479Z,77.00
2016-12-03T02:38:08.147Z,77.28
2016-12-03T02:39:07.726Z,77.50
2016-12-03T02:40:14.111Z,77.36
2016-12-03T02:41:07.977Z,77.95
2016-12-03T02:42:07.761Z,78.55
2016-12-03T02:43:08.376Z,79.06
2016-12-03T02:44:08.129Z,78.19
2016-12-03T02:45:07.654Z,77.55
2016-12-03T02:46:08.201Z,77.49
2016-12-03T02:47:08.029Z,77.29
2016-12-03T02:48:08.012Z,78.01
2016-12-03T02:49:07.604Z,78.46
2016-12-03T02:50:07.961Z,78.32
2016-12-03T02:51:07.491Z,78.01
2016-12-03T02:52:07.925Z,78.79
2016-12-03T02:53:13.699Z,79.24
2016-12-03T02:54:08.285Z,79.11
2016-12-03T02:55:07.810Z,79.96
2016-12-03T02:56:08.320Z,79.00
2016-12-03T02:57:07.774Z,79.68
2016-12-03T02:58:08.417Z,79.21
2016-12-03T02:59:07.868Z,79.76
2016-12-03T03:00:07.597Z,79.15
2016-12-03T03:01:08.191Z,79.67
2016-12-03T03:02:07.755Z,79.34
2016-12-03T03:03:08.376Z,79.48
2016-12-03T03:04:08.169Z,79.22
2016-12-03T03:05:07.740Z,80.66
2016-12-03T03:06:08.297Z,80.17
2016-12-03T03:07:08.164Z,80.37
2016-12-03T03:08:08.422Z,79.63
2016-12-03T03:09:08.340Z,80.08
2016-12-03T03:10:08.220Z,80.31
2016-12-03T03:11:07.762Z,81.09
2016-12-03T03:12:08.431Z,80.40
2016-12-03T03:13:08.147Z,80.09
2016-12-03T03:14:07.680Z,80.45
2016-12-03T03:15:08.440Z,80.05
2016-12-03T03:16:08.069Z,80.50
2016-12-03T03:17:07.797Z,80.89
2016-12-03T03:18:08.416Z,80.51
2016-12-03T03:19:08.029Z,80.84
2016-12-03T03:20:07.532Z,81.57
2016-12-03T03:21:08.136Z,80.60
2016-12-03T03:22:07.739Z,81.10
2016-12-03T03:23:08.389Z,81.50
2016-12-03T03:24:07.913Z,81.65
2016-12-03T03:25:08.549Z,81.53
2016-12-03T03:26:08.031Z,80.89
2016-12-03T03:27:07.964Z,81.02
2016-12-03T03:28:07.418Z,80.83
2016-12-03T03:29:07.980Z,81.01
2016-12-03T03:30:07.616Z,80.99
2016-12-03T03:31:08.187Z,81.67
2016-12-03T03:32:07.770Z,81.69
2016-12-03T03:33:08.346Z,81.61
2016-12-03T03:34:07.835Z,82.56
2016-12-03T03:35:08.269Z,82.61
2016-12-03T03:36:07.690Z,81.96
2016-12-03T03:37:08.401Z,81.34
2016-12-03T03:38:08.023Z,81.85
2016-12-03T03:39:07.910Z,82.14
2016-12-03T03:40:08.485Z,81.29
2016-12-03T03:41:08.228Z,81.14
2016-12-03T03:42:07.769Z,81.37
2016-12-03T03:43:08.379Z,80.95
2016-12-03T03:44:07.990Z,82.05
2016-12-03T03:45:07.424Z,82.44
2016-12-03T03:46:07.823Z,81.88
2016-12-03T03:47:08.283Z,82.23
2016-12-03T03:48:07.727Z,82.80
2016-12-03T03:49:08.340Z,82.16
2016-12-03T03:50:07.830Z,82.37
2016-12-03T03:51:08.008Z,83.17
2016-12-03T03:52:07.589Z,84.00
2016-12-03T03:53:08.145Z,83.92
2016-12-03T03:54:07.691Z,83.36
2016-12-03T03:55:08.221Z,82.86
2016-12-03T03:56:07.808Z,82.62
2016-12-03T03:57:08.388Z,82.96
2016-12-03T03:58:07.915Z,82.62
2016-12-03T03:59:08.527Z,83.17
2016-12-03T04:00:08.056Z,83.35
2016-12-03T04:01:07.533Z,82.88
2016-12-03T04:02:08.097Z,83.40
2016-12-03T04:03:07.537Z,83.37
2016-12-03T04:04:08.198Z,82.65
2016-12-03T04:05:07.894Z,82.64
2016-12-03T04:06:08.468Z,82.37
2016-12-03T04:07:08.051Z,82.20
2016-12-03T04:08:07.596Z,82.49
2016-12-03T04:09:08.182Z,82.53
2016-12-03T04:10:07.662Z,82.85
2016-12-03T04:11:08.128Z,83.48
2016-12-03T04:12:08.034Z,83.04
2016-12-03T04:13:07.565Z,83.66
2016-12-03T04:14:08.022Z,84.03
2016-12-03T04:15:08.391Z,83.66
2016-12-03T04:16:07.965Z,84.26
2016-12-03T04:17:07.534Z,84.07
2016-12-03T04:18:08.370Z,83.44
2016-12-03T04:19:13.818Z,83.08
2016-12-03T04:20:08.496Z,83.08
2016-12-03T04:21:08.012Z,83.35
2016-12-03T04:22:08.409Z,83.89
2016-12-03T04:23:07.974Z,83.91
2016-12-03T04:24:07.516Z,84.01
2016-12-03T04:25:08.033Z,83.67
2016-12-03T04:26:08.314Z,83.16
2016-12-03T04:27:07.824Z,82.96
2016-12-03T04:28:08.385Z,82.48
2016-12-03T04:29:07.853Z,82.57
2016-12-03T04:30:07.542Z,82.61
2016-12-03T04:31:08.067Z,82.96
2016-12-03T04:32:07.511Z,82.65
2016-12-03T04:33:08.021Z,83.71
2016-12-03T04:34:07.468Z,83.23
2016-12-03T04:35:07.953Z,82.64
2016-12-03T04:36:07.484Z,82.16
2016-12-03T04:37:07.983Z,82.75
2016-12-03T04:38:07.437Z,83.62
2016-12-03T04:39:08.036Z,83.99
2016-12-03T04:40:07.538Z,83.89
2016-12-03T04:41:07.759Z,83.45
2016-12-03T04:42:08.393Z,82.33
2016-12-03T04:43:07.987Z,81.32
2016-12-03T04:44:07.516Z,81.28
2016-12-03T04:45:08.125Z,81.83
2016-12-03T04:46:07.633Z,82.64
2016-12-03T04:47:08.283Z,83.05
2016-12-03T04:48:07.847Z,83.45
2016-12-03T04:49:08.313Z,82.61
2016-12-03T04:50:07.860Z,83.04
2016-12-03T04:51:08.434Z,82.86
2016-12-03T04:52:08.055Z,82.79
2016-12-03T04:53:07.904Z,82.47
2016-12-03T04:54:08.533Z,81.68
2016-12-03T04:55:08.299Z,82.24
2016-12-03T04:56:07.803Z,82.06
2016-12-03T04:57:07.793Z,82.04
2016-12-03T04:58:08.341Z,81.45
2016-12-03T04:59:07.963Z,82.44
2016-12-03T05:00:07.529Z,82.81
2016-12-03T05:01:08.186Z,83.11
2016-12-03T05:02:07.749Z,82.75
2016-12-03T05:03:08.379Z,84.26
2016-12-03T05:04:07.873Z,84.40
2016-12-03T05:05:08.556Z,83.72
2016-12-03T05:06:08.126Z,84.10
2016-12-03T05:07:07.544Z,84.89
2016-12-03T05:08:08.161Z,83.71
2016-12-03T05:09:07.833Z,83.33
2016-12-03T05:10:08.550Z,84.97
2016-12-03T05:11:08.211Z,84.06
2016-12-03T05:12:07.773Z,83.88
2016-12-03T05:13:08.370Z,85.09
2016-12-03T05:14:07.893Z,84.01
2016-12-03T05:15:08.564Z,83.68
2016-12-03T05:16:08.071Z,84.93
2016-12-03T05:17:07.764Z,84.48
2016-12-03T05:18:08.417Z,83.71
2016-12-03T05:19:08.004Z,83.54
2016-12-03T05:20:07.573Z,83.68
2016-12-03T05:21:08.182Z,84.65
2016-12-03T05:22:07.678Z,84.25
2016-12-03T05:23:08.233Z,84.31
2016-12-03T05:24:08.104Z,84.54
2016-12-03T05:25:10.524Z,84.87
2016-12-03T05:26:08.132Z,84.19
2016-12-03T05:27:07.710Z,83.55
2016-12-03T05:28:08.288Z,84.03
2016-12-03T05:29:07.754Z,84.30
2016-12-03T05:30:08.410Z,85.01
2016-12-03T05:31:08.102Z,85.56
2016-12-03T05:32:07.604Z,85.65
2016-12-03T05:33:08.196Z,84.38
2016-12-03T05:34:07.706Z,84.16
2016-12-03T05:35:08.294Z,85.18
2016-12-03T05:36:07.913Z,85.24
2016-12-03T05:37:07.490Z,84.31
2016-12-03T05:38:08.085Z,85.08
2016-12-03T05:39:07.643Z,84.67
2016-12-03T05:40:08.105Z,84.19
2016-12-03T05:41:07.952Z,83.95
2016-12-03T05:42:07.483Z,84.76
2016-12-03T05:43:08.060Z,84.09
2016-12-03T05:44:08.534Z,83.88
2016-12-03T05:45:08.093Z,83.90
2016-12-03T05:46:07.759Z,84.04
2016-12-03T05:47:08.305Z,83.56
2016-12-03T05:48:07.513Z,84.45
2016-12-03T05:49:13.634Z,85.11
2016-12-03T05:50:08.197Z,84.38
2016-12-03T05:51:08.123Z,84.87
2016-12-03T05:52:07.759Z,84.85
2016-12-03T05:53:08.450Z,83.79
2016-12-03T05:54:07.925Z,83.41
2016-12-03T05:55:07.505Z,83.61
2016-12-03T05:56:08.075Z,84.29
2016-12-03T05:57:07.630Z,83.96
2016-12-03T05:58:08.181Z,83.95
2016-12-03T05:59:07.689Z,84.04
2016-12-03T06:00:08.219Z,84.54
2016-12-03T06:01:07.759Z,85.06
2016-12-03T06:02:08.327Z,84.86
2016-12-03T06:03:07.871Z,86.15
2016-12-03T06:04:08.423Z,86.01
2016-12-03T06:05:07.989Z,86.26
2016-12-03T06:06:07.580Z,86.07
2016-12-03T06:07:08.111Z,86.15
2016-12-03T06:08:07.723Z,86.47
2016-12-03T06:09:08.223Z,85.35
2016-12-03T06:10:07.829Z,84.71
2016-12-03T06:11:08.489Z,84.28
2016-12-03T06:12:08.076Z,84.60
2016-12-03T06:13:07.592Z,84.87
2016-12-03T06:14:08.182Z,85.60
2016-12-03T06:15:07.891Z,85.96
2016-12-03T06:16:08.541Z,85.55
2016-12-03T06:17:08.169Z,85.17
2016-12-03T06:18:07.967Z,85.48
2016-12-03T06:19:07.448Z,85.06
2016-12-03T06:20:08.009Z,85.59
2016-12-03T06:21:07.479Z,85.57
2016-12-03T06:22:08.045Z,85.57
2016-12-03T06:23:07.517Z,86.28
2016-12-03T06:24:08.157Z,85.97
2016-12-03T06:25:07.751Z,85.68
2016-12-03T06:26:08.502Z,86.42
2016-12-03T06:27:08.121Z,86.31
2016-12-03T06:28:07.676Z,86.46
2016-12-03T06:29:08.189Z,86.23
2016-12-03T06:30:07.670Z,85.92
2016-12-03T06:31:08.262Z,85.47
2016-12-03T06:32:07.856Z,85.11
2016-12-03T06:33:08.510Z,85.46
2016-12-03T06:34:08.123Z,85.64
2016-12-03T06:35:07.680Z,86.33
2016-12-03T06:36:08.388Z,87.27
2016-12-03T06:37:08.183Z,87.38
2016-12-03T06:38:07.661Z,87.73
2016-12-03T06:39:08.221Z,87.83
2016-12-03T06:40:07.776Z,86.75
2016-12-03T06:41:08.435Z,86.42
2016-12-03T06:42:08.719Z,85.64
2016-12-03T06:43:08.309Z,86.12
2016-12-03T06:44:08.230Z,85.92
2016-12-03T06:45:07.882Z,86.15
2016-12-03T06:46:09.618Z,85.46
2016-12-03T06:47:08.075Z,86.05
2016-12-03T06:48:08.379Z,85.88
2016-12-03T06:49:07.904Z,86.47
2016-12-03T06:50:08.576Z,86.93
2016-12-03T06:51:08.018Z,85.72
2016-12-03T06:52:14.356Z,85.57
2016-12-03T06:53:08.105Z,86.25
2016-12-03T06:54:07.571Z,86.38
2016-12-03T06:55:08.186Z,85.93
2016-12-03T06:56:19.804Z,85.99
2016-12-03T06:57:08.426Z,85.45
2016-12-03T06:58:08.025Z,86.61
2016-12-03T06:59:07.607Z,86.75
2016-12-03T07:00:08.206Z,86.73
2016-12-03T07:01:07.747Z,85.69
2016-12-03T07:02:14.772Z,85.69
2016-12-03T07:03:08.361Z,85.96
2016-12-03T07:04:07.909Z,85.35
2016-12-03T07:05:08.495Z,85.54
2016-12-03T07:06:08.166Z,85.55
2016-12-03T07:07:07.662Z,85.01
2016-12-03T07:08:08.231Z,84.85
2016-12-03T07:09:07.753Z,84.18
2016-12-03T07:10:08.438Z,84.83
2016-12-03T07:11:08.035Z,85.45
2016-12-03T07:12:07.653Z,85.50
2016-12-03T07:13:08.317Z,85.05
2016-12-03T07:14:07.811Z,85.18
2016-12-03T07:15:09.044Z,85.17
2016-12-03T07:16:09.916Z,85.99
2016-12-03T07:17:08.557Z,86.57
2016-12-03T07:18:08.110Z,86.17
2016-12-03T07:19:07.620Z,85.74
2016-12-03T07:20:08.928Z,85.18
2016-12-03T07:21:08.535Z,85.24
2016-12-03T07:22:08.110Z,85.43
2016-12-03T07:23:07.647Z,84.39
2016-12-03T07:24:08.326Z,84.11
2016-12-03T07:25:08.129Z,85.05
2016-12-03T07:26:07.730Z,84.22
2016-12-03T07:27:08.268Z,83.72
2016-12-03T07:28:14.361Z,84.45
2016-12-03T07:29:07.943Z,84.06
2016-12-03T07:30:07.554Z,84.17
2016-12-03T07:31:08.144Z,83.61
2016-12-03T07:32:07.711Z,83.12
2016-12-03T07:33:08.299Z,84.07
2016-12-03T07:34:07.885Z,83.92
2016-12-03T07:35:08.528Z,84.75
2016-12-03T07:36:08.175Z,84.46
2016-12-03T07:37:07.894Z,85.51
2016-12-03T07:38:08.814Z,85.09
2016-12-03T07:39:16.553Z,84.36
2016-12-03T07:40:15.884Z,83.88
2016-12-03T07:41:11.727Z,83.71
2016-12-03T07:42:29.305Z,83.46
2016-12-03T07:43:13.997Z,84.08
2016-12-03T07:44:10.635Z,84.71
2016-12-03T07:45:17.423Z,85.57
2016-12-03T07:46:13.722Z,84.46
2016-12-03T07:47:16.073Z,83.00
2016-12-03T07:48:15.422Z,83.85
2016-12-03T07:49:20.927Z,84.38
2016-12-03T07:50:08.564Z,83.32
2016-12-03T07:51:08.294Z,83.02
2016-12-03T07:52:07.983Z,83.40
2016-12-03T07:53:07.891Z,83.87
2016-12-03T07:54:08.931Z,83.93
2016-12-03T07:55:07.590Z,83.61
2016-12-03T07:56:08.364Z,83.26
2016-12-03T07:57:08.049Z,82.99
2016-12-03T07:58:16.834Z,83.51
2016-12-03T07:59:16.463Z,83.00
2016-12-03T08:00:15.694Z,82.28
2016-12-03T08:01:14.932Z,82.63
2016-12-03T08:02:08.970Z,82.00
2016-12-03T08:03:07.642Z,82.53
2016-12-03T08:04:08.325Z,82.55
2016-12-03T08:05:08.052Z,83.71
2016-12-03T08:06:07.781Z,83.31
2016-12-03T08:07:08.988Z,83.28
2016-12-03T08:08:08.771Z,83.98
2016-12-03T08:09:08.742Z,82.84
2016-12-03T08:10:36.186Z,82.83
2016-12-03T08:11:19.587Z,82.73
2016-12-03T08:12:21.092Z,82.52
2016-12-03T08:13:20.299Z,82.84
2016-12-03T08:14:31.084Z,82.80
2016-12-03T08:15:16.975Z,82.72
2016-12-03T08:16:10.858Z,83.52
2016-12-03T08:17:26.450Z,81.88
2016-12-03T08:18:20.567Z,81.92
2016-12-03T08:19:09.528Z,81.20
2016-12-03T08:20:08.453Z,81.10
2016-12-03T08:21:08.334Z,81.87
2016-12-03T08:22:08.095Z,81.65
2016-12-03T08:23:07.840Z,82.60
2016-12-03T08:24:29.804Z,81.99
2016-12-03T08:25:13.342Z,82.03
2016-12-03T08:26:15.008Z,82.40
2016-12-03T08:27:09.111Z,82.16
2016-12-03T08:28:19.517Z,81.50
2016-12-03T08:29:28.404Z,80.59
2016-12-03T08:30:16.164Z,80.40
2016-12-03T08:31:11.361Z,80.85
2016-12-03T08:32:15.061Z,81.65
2016-12-03T08:33:59.740Z,82.32
2016-12-03T08:34:12.316Z,81.12
2016-12-03T08:35:19.235Z,80.95
2016-12-03T08:36:12.855Z,82.11
2016-12-03T08:37:31.060Z,81.40
2016-12-03T08:38:07.820Z,80.67
2016-12-03T08:39:08.793Z,80.95
2016-12-03T08:40:33.601Z,80.63
2016-12-03T08:41:28.878Z,81.71
2016-12-03T08:42:26.111Z,81.49
2016-12-03T08:43:30.772Z,81.66
2016-12-03T08:44:28.346Z,81.58
2016-12-03T08:45:08.475Z,80.32
2016-12-03T08:46:26.061Z,80.39
2016-12-03T08:47:07.843Z,80.52
2016-12-03T08:48:08.600Z,81.53
2016-12-03T08:49:21.192Z,80.06
2016-12-03T08:50:19.859Z,80.54
2016-12-03T08:51:08.525Z,80.77
2016-12-03T08:52:21.168Z,80.15
2016-12-03T08:53:16.100Z,80.41
2016-12-03T08:54:08.774Z,80.17
2016-12-03T08:55:08.893Z,81.08
2016-12-03T08:56:08.630Z,80.73
2016-12-03T08:57:08.523Z,80.99
2016-12-03T08:58:29.821Z,80.45
2016-12-03T08:59:09.598Z,80.67
2016-12-03T09:00:26.808Z,80.94
2016-12-03T09:01:09.704Z,81.60
2016-12-03T09:02:19.988Z,81.63
2016-12-03T09:03:08.552Z,80.96
2016-12-03T09:04:08.180Z,81.25
2016-12-03T09:05:08.279Z,80.82
2016-12-03T09:06:08.161Z,80.03
2016-12-03T09:07:13.360Z,80.73
2016-12-03T09:08:08.201Z,80.62
2016-12-03T09:09:07.983Z,81.09
2016-12-03T09:10:07.872Z,79.91
2016-12-03T09:11:08.741Z,79.99
2016-12-03T09:12:16.267Z,79.76
2016-12-03T09:13:07.937Z,79.86
2016-12-03T09:14:07.510Z,79.99
2016-12-03T09:15:08.377Z,79.65
2016-12-03T09:16:08.190Z,80.11
2016-12-03T09:17:07.852Z,80.57
2016-12-03T09:18:40.507Z,80.69
2016-12-03T09:19:46.782Z,80.33
2016-12-03T09:20:15.862Z,79.10
2016-12-03T09:21:15.487Z,78.09
2016-12-03T09:22:10.353Z,77.89
2016-12-03T09:23:33.294Z,78.72
2016-12-03T09:24:27.311Z,78.89
2016-12-03T09:25:19.603Z,78.84
2016-12-03T09:26:08.851Z,78.04
2016-12-03T09:27:10.493Z,79.28
2016-12-03T09:28:08.991Z,80.04
2016-12-03T09:29:07.741Z,79.04
2016-12-03T09:30:08.435Z,78.66
2016-12-03T09:31:08.221Z,80.64
2016-12-03T09:32:09.394Z,79.66
2016-12-03T09:33:18.855Z,78.82
2016-12-03T09:34:08.458Z,78.22
2016-12-03T09:35:08.044Z,77.99
2016-12-03T09:36:07.874Z,78.30
2016-12-03T09:37:09.939Z,79.99
2016-12-03T09:38:07.724Z,79.65
2016-12-03T09:39:08.732Z,79.43
2016-12-03T09:40:08.403Z,79.31
2016-12-03T09:41:08.554Z,79.56
2016-12-03T09:42:08.449Z,80.33
2016-12-03T09:43:08.227Z,79.29
2016-12-03T09:44:07.876Z,79.95
2016-12-03T09:45:08.669Z,79.02
2016-12-03T09:46:09.368Z,78.81
2016-12-03T09:47:08.314Z,78.05
2016-12-03T09:48:08.953Z,79.58
2016-12-03T09:49:42.879Z,78.86
2016-12-03T09:50:22.343Z,78.51
2016-12-03T09:51:28.620Z,78.05
2016-12-03T09:52:11.280Z,78.35
2016-12-03T09:53:11.761Z,78.43
2016-12-03T09:54:18.180Z,77.79
2016-12-03T09:55:29.835Z,77.45
2016-12-03T09:56:13.152Z,78.11
2016-12-03T09:57:10.342Z,76.46
2016-12-03T09:58:20.336Z,76.57
2016-12-03T09:59:14.382Z,76.32
2016-12-03T10:00:16.103Z,76.30
2016-12-03T10:01:16.027Z,77.31
2016-12-03T10:02:15.115Z,77.79
2016-12-03T10:03:08.081Z,78.32
2016-12-03T10:04:28.976Z,78.42
2016-12-03T10:05:17.663Z,78.30
2016-12-03T10:06:30.735Z,77.89
2016-12-03T10:07:32.695Z,78.66
2016-12-03T10:08:13.919Z,78.95
2016-12-03T10:09:09.173Z,78.14
2016-12-03T10:10:13.350Z,78.05
2016-12-03T10:11:09.607Z,77.84
2016-12-03T10:12:08.349Z,76.71
2016-12-03T10:13:08.418Z,76.36
2016-12-03T10:14:08.116Z,76.12
2016-12-03T10:15:07.805Z,76.51
2016-12-03T10:16:09.977Z,76.17
2016-12-03T10:17:07.973Z,76.02
2016-12-03T10:18:07.447Z,76.46
2016-12-03T10:19:08.034Z,76.87
2016-12-03T10:20:08.424Z,77.03
2016-12-03T10:21:17.155Z,77.11
2016-12-03T10:22:11.088Z,76.26
2016-12-03T10:23:16.352Z,75.73
2016-12-03T10:24:11.088Z,75.69
2016-12-03T10:25:16.330Z,75.84
2016-12-03T10:26:14.825Z,75.54
2016-12-03T10:27:31.486Z,76.12
2016-12-03T10:28:08.774Z,75.76
2016-12-03T10:29:09.401Z,76.50
2016-12-03T10:30:08.167Z,75.01
2016-12-03T10:31:07.920Z,74.04
2016-12-03T10:32:08.562Z,75.07
2016-12-03T10:33:08.269Z,73.66
2016-12-03T10:34:07.907Z,73.32
2016-12-03T10:35:08.490Z,72.94
2016-12-03T10:36:08.032Z,72.39
2016-12-03T10:37:13.391Z,72.69
2016-12-03T10:38:08.809Z,72.41
2016-12-03T10:39:10.621Z,72.76
2016-12-03T10:40:08.389Z,73.12
2016-12-03T10:41:08.055Z,74.53
2016-12-03T10:42:07.709Z,73.84
2016-12-03T10:43:10.733Z,73.72
2016-12-03T10:44:08.565Z,74.72
2016-12-03T10:45:08.361Z,74.52
2016-12-03T10:46:08.038Z,74.00
2016-12-03T10:47:07.895Z,74.31
2016-12-03T10:48:22.301Z,72.59
2016-12-03T10:49:13.865Z,72.95
2016-12-03T10:50:28.835Z,73.25
2016-12-03T10:51:12.177Z,72.87
2016-12-03T10:52:07.829Z,72.70
2016-12-03T10:53:09.904Z,73.76
2016-12-03T10:54:08.576Z,74.18
2016-12-03T10:55:08.144Z,75.12
2016-12-03T10:56:07.973Z,74.79
2016-12-03T10:57:08.962Z,74.30
2016-12-03T10:58:07.787Z,74.21
2016-12-03T10:59:30.717Z,74.58
2016-12-03T11:00:16.310Z,73.91
2016-12-03T11:01:08.062Z,74.19
2016-12-03T11:02:07.788Z,73.41
2016-12-03T11:03:08.482Z,73.03
2016-12-03T11:04:10.519Z,71.72
2016-12-03T11:05:08.678Z,73.67
2016-12-03T11:06:14.886Z,72.83
2016-12-03T11:07:21.940Z,72.64
2016-12-03T11:08:07.445Z,72.42
2016-12-03T11:09:08.575Z,72.36
2016-12-03T11:10:08.217Z,72.29
2016-12-03T11:11:07.892Z,71.89
2016-12-03T11:12:08.580Z,72.28
2016-12-03T11:13:08.175Z,72.78
2016-12-03T11:14:07.760Z,72.91
2016-12-03T11:15:08.368Z,72.92
2016-12-03T11:16:07.993Z,72.74
2016-12-03T11:17:08.025Z,73.96
2016-12-03T11:18:07.645Z,74.31
2016-12-03T11:19:08.444Z,73.99
2016-12-03T11:20:08.027Z,73.84
2016-12-03T11:21:07.541Z,73.87
2016-12-03T11:22:08.192Z,74.86
2016-12-03T11:23:07.735Z,74.09
2016-12-03T11:24:08.391Z,73.87
2016-12-03T11:25:07.973Z,73.98
2016-12-03T11:26:07.877Z,73.66
2016-12-03T11:27:08.512Z,73.43
2016-12-03T11:28:08.053Z,73.23
2016-12-03T11:29:08.471Z,73.21
2016-12-03T11:30:07.977Z,73.13
2016-12-03T11:31:07.545Z,73.47
2016-12-03T11:32:08.134Z,73.87
2016-12-03T11:33:07.885Z,73.47
2016-12-03T11:34:08.473Z,73.92
2016-12-03T11:35:08.050Z,73.57
2016-12-03T11:36:07.572Z,72.86
2016-12-03T11:37:08.151Z,72.38
2016-12-03T11:38:18.594Z,71.67
2016-12-03T11:39:08.353Z,72.18
2016-12-03T11:40:07.871Z,71.54
2016-12-03T11:41:08.489Z,72.40
2016-12-03T11:42:08.201Z,72.19
2016-12-03T11:43:07.713Z,72.58
2016-12-03T11:44:25.264Z,71.87
2016-12-03T11:45:23.992Z,73.08
2016-12-03T11:46:07.858Z,73.26
2016-12-03T11:47:08.527Z,73.92
2016-12-03T11:48:08.192Z,73.21
2016-12-03T11:49:08.361Z,72.69
2016-12-03T11:50:08.198Z,73.22
2016-12-03T11:51:07.865Z,73.45
2016-12-03T11:52:16.263Z,73.73
2016-12-03T11:53:08.460Z,73.82
2016-12-03T11:54:08.180Z,73.58
2016-12-03T11:55:07.843Z,73.28
2016-12-03T11:56:38.007Z,71.50
2016-12-03T11:57:09.390Z,72.15
2016-12-03T11:58:08.186Z,73.24
2016-12-03T11:59:09.752Z,72.62
2016-12-03T12:00:07.883Z,72.56
2016-12-03T12:01:09.379Z,72.65
2016-12-03T12:02:08.127Z,72.60
2016-12-03T12:03:07.780Z,72.34
2016-12-03T12:04:08.427Z,71.70
2016-12-03T12:05:07.917Z,70.88
2016-12-03T12:06:08.487Z,69.87
2016-12-03T12:07:07.985Z,70.42
2016-12-03T12:08:07.468Z,70.25
2016-12-03T12:09:08.051Z,71.00
2016-12-03T12:10:07.566Z,70.58
2016-12-03T12:11:08.099Z,70.83
2016-12-03T12:12:07.772Z,71.16
2016-12-03T12:13:08.413Z,70.71
2016-12-03T12:14:07.949Z,70.84
2016-12-03T12:15:07.520Z,71.18
2016-12-03T12:16:08.112Z,70.23
2016-12-03T12:17:08.990Z,71.55
2016-12-03T12:18:07.771Z,71.18
2016-12-03T12:19:08.375Z,70.92
2016-12-03T12:20:07.844Z,71.58
2016-12-03T12:21:08.465Z,71.24
2016-12-03T12:22:07.976Z,71.00
2016-12-03T12:23:07.564Z,71.08
2016-12-03T12:24:08.133Z,70.78
2016-12-03T12:25:07.686Z,71.12
2016-12-03T12:26:08.304Z,70.04
2016-12-03T12:27:07.751Z,69.77
2016-12-03T12:28:07.924Z,69.31
2016-12-03T12:29:08.416Z,68.11
2016-12-03T12:30:07.967Z,68.64
2016-12-03T12:31:07.523Z,68.62
2016-12-03T12:32:08.096Z,68.37
2016-12-03T12:33:07.913Z,68.00
2016-12-03T12:34:08.527Z,68.65
2016-12-03T12:35:08.118Z,68.22
2016-12-03T12:36:07.709Z,68.27
2016-12-03T12:37:08.266Z,68.43
2016-12-03T12:38:07.792Z,68.61
2016-12-03T12:39:08.416Z,67.84
2016-12-03T12:40:07.920Z,68.49
2016-12-03T12:41:08.436Z,68.45
2016-12-03T12:42:08.100Z,68.19
2016-12-03T12:43:07.681Z,69.00
2016-12-03T12:44:08.256Z,68.49
2016-12-03T12:45:07.983Z,68.06
2016-12-03T12:46:07.469Z,68.66
2016-12-03T12:47:08.109Z,67.73
2016-12-03T12:48:07.707Z,67.54
2016-12-03T12:49:08.306Z,69.28
2016-12-03T12:50:07.785Z,68.80
2016-12-03T12:51:08.367Z,68.67
2016-12-03T12:52:07.911Z,68.76